createdAt,value
2019-02-26T00:01:16.432Z,44.30
2019-02-26T00:03:51.510Z,44.50
2019-02-26T00:06:28.460Z,44.40
2019-02-26T00:09:06.127Z,44.10
2019-02-26T00:11:41.026Z,43.80
2019-02-26T00:14:17.522Z,43.20
2019-02-26T00:16:53.189Z,43.20
2019-02-26T00:19:28.151Z,42.80
2019-02-26T00:22:02.631Z,42.70
2019-02-26T00:24:39.804Z,42.80
2019-02-26T00:27:16.734Z,43.40
2019-02-26T00:29:55.140Z,43.50
2019-02-26T00:32:31.916Z,44.30
2019-02-26T00:35:08.170Z,44.30
2019-02-26T00:37:46.587Z,44.10
2019-02-26T00:40:23.066Z,44.30
2019-02-26T00:43:00.359Z,44.30
2019-02-26T00:45:39.167Z,43.90
2019-02-26T00:48:14.851Z,43.80
2019-02-26T00:50:52.235Z,43.20
2019-02-26T00:53:28.368Z,42.40
2019-02-26T00:56:05.631Z,42.40
2019-02-26T00:58:41.549Z,42.10
2019-02-26T01:01:21.747Z,41.60
2019-02-26T01:03:57.532Z,41.00
2019-02-26T01:06:33.567Z,41.00
2019-02-26T01:09:11.737Z,40.80
2019-02-26T01:11:48.125Z,40.60
2019-02-26T01:14:24.686Z,41.10
2019-02-26T01:17:00.287Z,41.00
2019-02-26T01:19:38.321Z,40.90
2019-02-26T01:22:13.485Z,40.50
2019-02-26T01:24:50.234Z,40.00
2019-02-26T01:27:26.179Z,39.60
2019-02-26T01:30:03.425Z,39.60
2019-02-26T01:32:38.075Z,39.70
2019-02-26T01:35:13.488Z,39.90
2019-02-26T01:37:49.369Z,40.80
2019-02-26T01:40:26.568Z,41.20
2019-02-26T01:43:03.160Z,41.50
2019-02-26T01:45:38.164Z,41.90
2019-02-26T01:48:16.738Z,42.10
2019-02-26T01:50:52.046Z,41.90
2019-02-26T01:53:27.477Z,41.90
2019-02-26T01:56:05.088Z,41.30
2019-02-26T01:58:40.721Z,41.20
2019-02-26T02:01:16.795Z,41.20
2019-02-26T02:03:56.136Z,41.60
2019-02-26T02:06:33.149Z,41.70
2019-02-26T02:09:13.245Z,41.90
2019-02-26T02:11:46.452Z,42.00
2019-02-26T02:14:23.423Z,41.40
2019-02-26T02:17:01.232Z,41.60
2019-02-26T02:19:36.894Z,42.20
2019-02-26T02:22:14.538Z,43.30
2019-02-26T02:24:51.716Z,44.20
2019-02-26T02:27:28.079Z,44.30
2019-02-26T02:30:04.625Z,44.10
2019-02-26T02:32:39.788Z,44.00
2019-02-26T02:35:17.834Z,43.20
2019-02-26T02:37:53.594Z,42.70
2019-02-26T02:40:29.146Z,43.00
2019-02-26T02:43:09.813Z,43.40
2019-02-26T02:45:42.079Z,43.40
2019-02-26T02:48:18.137Z,43.30
2019-02-26T02:50:53.709Z,43.40
2019-02-26T02:53:30.188Z,43.90
2019-02-26T02:56:21.183Z,44.70
2019-02-26T02:58:58.224Z,45.20
2019-02-26T03:01:32.587Z,44.80
2019-02-26T03:04:09.041Z,43.90
2019-02-26T03:06:44.068Z,43.50
2019-02-26T03:09:22.571Z,43.60
2019-02-26T03:11:59.462Z,43.20
2019-02-26T03:14:38.353Z,43.40
2019-02-26T03:17:14.700Z,43.10
2019-02-26T03:19:49.874Z,42.70
2019-02-26T03:22:26.067Z,42.10
2019-02-26T03:25:02.542Z,42.60
2019-02-26T03:27:42.473Z,43.20
2019-02-26T03:30:32.115Z,43.30
2019-02-26T03:33:04.225Z,42.60
2019-02-26T03:35:36.632Z,42.00
2019-02-26T03:38:11.648Z,42.40
2019-02-26T03:40:49.289Z,42.00
2019-02-26T03:43:24.052Z,41.30
2019-02-26T03:45:59.474Z,40.80
2019-02-26T03:48:34.769Z,40.70
2019-02-26T03:51:09.665Z,41.00
2019-02-26T03:53:46.472Z,41.90
2019-02-26T03:56:22.920Z,42.20
2019-02-26T03:59:00.235Z,41.90
2019-02-26T04:01:35.734Z,41.70
2019-02-26T04:04:10.153Z,42.00
2019-02-26T04:06:47.170Z,42.40
2019-02-26T04:09:22.601Z,42.60
2019-02-26T04:11:57.731Z,42.60
2019-02-26T04:14:32.902Z,42.80
2019-02-26T04:17:09.116Z,43.70
2019-02-26T04:19:44.710Z,44.10
2019-02-26T04:22:40.187Z,44.80
2019-02-26T04:25:53.926Z,45.50
2019-02-26T04:28:40.389Z,45.70
2019-02-26T04:32:25.228Z,46.60
2019-02-26T04:35:32.002Z,46.80
2019-02-26T04:39:18.768Z,46.70
2019-02-26T04:42:09.456Z,46.30
2019-02-26T04:45:21.827Z,46.50
2019-02-26T04:48:00.572Z,46.90
2019-02-26T04:50:38.728Z,47.30
2019-02-26T04:53:12.993Z,47.30
2019-02-26T04:55:49.212Z,47.10
2019-02-26T04:58:24.052Z,47.20
2019-02-26T05:01:00.363Z,47.10
2019-02-26T05:03:36.511Z,47.20
2019-02-26T05:06:11.548Z,47.60
2019-02-26T05:08:47.033Z,47.70
2019-02-26T05:11:32.595Z,47.70
2019-02-26T05:14:07.201Z,47.60
2019-02-26T05:16:45.676Z,47.30
2019-02-26T05:19:22.489Z,47.30
2019-02-26T05:21:59.341Z,47.40
2019-02-26T05:24:37.962Z,47.90
2019-02-26T05:27:22.712Z,48.00
2019-02-26T05:29:57.406Z,47.70
2019-02-26T05:32:35.534Z,48.90
2019-02-26T05:35:14.146Z,48.50
2019-02-26T05:37:50.466Z,48.50
2019-02-26T05:40:26.608Z,48.50
2019-02-26T05:43:04.684Z,48.10
2019-02-26T05:45:38.938Z,47.80
2019-02-26T05:48:16.169Z,47.70
2019-02-26T05:50:50.301Z,47.60
2019-02-26T05:53:26.075Z,47.90
2019-02-26T05:56:13.989Z,48.20
2019-02-26T05:58:47.084Z,48.50
2019-02-26T06:01:29.813Z,48.80
2019-02-26T06:04:07.534Z,49.00
2019-02-26T06:06:43.222Z,48.90
2019-02-26T06:09:20.106Z,49.30
2019-02-26T06:11:56.654Z,48.90
2019-02-26T06:14:33.107Z,48.60
2019-02-26T06:17:12.542Z,48.60
2019-02-26T06:19:52.988Z,48.50
2019-02-26T06:22:29.694Z,48.60
2019-02-26T06:25:09.529Z,49.00
2019-02-26T06:27:43.584Z,48.70
2019-02-26T06:30:19.500Z,48.50
2019-02-26T06:32:53.995Z,48.40
2019-02-26T06:35:31.914Z,48.00
2019-02-26T06:38:11.490Z,47.60
2019-02-26T06:40:48.856Z,47.70
2019-02-26T06:43:23.104Z,48.20
2019-02-26T06:46:00.053Z,48.50
2019-02-26T06:48:35.368Z,49.10
2019-02-26T06:51:12.110Z,49.50
2019-02-26T06:53:49.828Z,50.40
2019-02-26T06:56:25.736Z,50.40
2019-02-26T06:59:07.441Z,51.10
2019-02-26T07:01:44.040Z,51.30
2019-02-26T07:04:19.624Z,51.50
2019-02-26T07:06:57.516Z,51.60
2019-02-26T07:09:34.672Z,51.20
2019-02-26T07:12:12.064Z,50.40
2019-02-26T07:14:50.779Z,50.20
2019-02-26T07:17:26.895Z,50.00
2019-02-26T07:20:03.445Z,50.30
2019-02-26T07:22:41.504Z,51.10
2019-02-26T07:25:18.754Z,51.80
2019-02-26T07:27:58.939Z,52.30
2019-02-26T07:30:42.177Z,52.50
2019-02-26T07:33:16.520Z,52.20
2019-02-26T07:35:56.391Z,51.80
2019-02-26T07:38:40.581Z,51.80
2019-02-26T07:41:08.245Z,52.30
2019-02-26T07:43:46.895Z,53.00
2019-02-26T07:46:22.322Z,53.30
2019-02-26T07:48:59.928Z,53.20
2019-02-26T07:51:36.258Z,53.60
2019-02-26T07:54:11.711Z,53.60
2019-02-26T07:56:46.795Z,54.10
2019-02-26T07:59:27.551Z,53.60
2019-02-26T08:02:03.757Z,53.20
2019-02-26T08:04:38.932Z,53.70
2019-02-26T08:07:15.435Z,53.40
2019-02-26T08:09:51.084Z,53.20
2019-02-26T08:12:26.865Z,53.40
2019-02-26T08:15:02.959Z,53.60
2019-02-26T08:17:39.224Z,53.30
2019-02-26T08:20:15.075Z,52.60
2019-02-26T08:22:51.470Z,51.50
2019-02-26T08:25:25.551Z,51.20
2019-02-26T08:28:01.705Z,51.40
2019-02-26T08:30:40.208Z,51.20
2019-02-26T08:33:14.250Z,51.10
2019-02-26T08:35:48.743Z,51.50
2019-02-26T08:38:23.397Z,51.30
2019-02-26T08:41:00.419Z,51.30
2019-02-26T08:43:35.318Z,51.20
2019-02-26T08:46:12.183Z,50.60
2019-02-26T08:48:47.949Z,49.90
2019-02-26T08:51:22.334Z,49.40
2019-02-26T08:53:57.330Z,49.40
2019-02-26T08:56:34.297Z,49.60
2019-02-26T08:59:09.712Z,49.30
2019-02-26T09:01:46.723Z,49.40
2019-02-26T09:04:24.259Z,49.80
2019-02-26T09:07:00.278Z,50.50
2019-02-26T09:09:35.658Z,50.50
2019-02-26T09:12:11.558Z,50.00
2019-02-26T09:14:48.122Z,50.30
2019-02-26T09:17:24.374Z,50.00
2019-02-26T09:20:08.383Z,50.20
2019-02-26T09:22:33.732Z,50.60
2019-02-26T09:25:09.791Z,50.90
2019-02-26T09:27:46.211Z,51.20
2019-02-26T09:30:21.820Z,50.50
2019-02-26T09:32:58.449Z,50.20
2019-02-26T09:35:34.841Z,50.50
2019-02-26T09:38:09.708Z,51.00
2019-02-26T09:40:47.658Z,50.90
2019-02-26T09:43:24.775Z,49.40
2019-02-26T09:46:00.356Z,50.10
2019-02-26T09:48:40.423Z,50.00
2019-02-26T09:51:16.985Z,49.80
2019-02-26T09:53:53.920Z,49.60
2019-02-26T09:56:28.742Z,50.10
2019-02-26T09:59:06.902Z,49.20
2019-02-26T10:01:42.835Z,50.30
2019-02-26T10:04:22.100Z,49.00
2019-02-26T10:06:56.434Z,49.40
2019-02-26T10:09:32.962Z,49.00
2019-02-26T10:12:09.877Z,49.50
2019-02-26T10:14:44.091Z,49.70
2019-02-26T10:17:21.478Z,50.60
2019-02-26T10:19:56.970Z,50.00
2019-02-26T10:22:36.183Z,49.60
2019-02-26T10:25:15.245Z,49.60
2019-02-26T10:27:48.887Z,49.40
2019-02-26T10:30:25.102Z,49.00
2019-02-26T10:33:02.777Z,49.10
2019-02-26T10:35:38.691Z,49.40
2019-02-26T10:38:12.396Z,49.70
2019-02-26T10:40:53.804Z,48.70
2019-02-26T10:43:25.145Z,49.10
2019-02-26T10:46:02.013Z,49.40
2019-02-26T10:48:37.222Z,49.60
2019-02-26T10:51:16.722Z,49.40
2019-02-26T10:53:51.935Z,50.00
2019-02-26T10:56:30.679Z,50.30
2019-02-26T10:59:12.570Z,49.50
2019-02-26T11:01:49.751Z,48.70
2019-02-26T11:04:34.378Z,48.20
2019-02-26T11:07:04.823Z,47.90
2019-02-26T11:09:41.642Z,48.10
2019-02-26T11:12:17.498Z,47.80
2019-02-26T11:14:52.732Z,48.10
2019-02-26T11:17:31.648Z,48.90
2019-02-26T11:20:10.926Z,49.70
2019-02-26T11:22:47.116Z,49.00
2019-02-26T11:25:27.176Z,48.10
2019-02-26T11:28:02.992Z,49.80
2019-02-26T11:30:41.262Z,49.30
2019-02-26T11:33:18.929Z,48.40
2019-02-26T11:35:54.521Z,48.00
2019-02-26T11:38:33.997Z,48.40
2019-02-26T11:41:08.551Z,48.50
2019-02-26T11:43:44.894Z,48.60
2019-02-26T11:46:23.113Z,49.10
2019-02-26T11:48:58.445Z,48.90
2019-02-26T11:51:37.298Z,49.70
2019-02-26T11:54:15.023Z,48.60
2019-02-26T11:56:52.557Z,47.00
2019-02-26T11:59:27.956Z,47.00
2019-02-26T12:02:04.441Z,47.00
2019-02-26T12:04:39.993Z,46.40
2019-02-26T12:07:16.314Z,45.20
2019-02-26T12:09:50.700Z,44.50
2019-02-26T12:12:27.967Z,44.60
2019-02-26T12:15:04.422Z,43.90
2019-02-26T12:17:40.426Z,43.30
2019-02-26T12:20:17.691Z,42.70
2019-02-26T12:22:55.462Z,42.30
2019-02-26T12:25:29.731Z,41.30
2019-02-26T12:28:05.392Z,41.30
2019-02-26T12:30:44.740Z,41.30
2019-02-26T12:33:21.154Z,40.80
2019-02-26T12:35:59.484Z,40.40
2019-02-26T12:38:36.794Z,39.80
2019-02-26T12:41:15.848Z,39.50
2019-02-26T12:43:52.147Z,39.30
2019-02-26T12:46:31.093Z,40.40
2019-02-26T12:49:08.550Z,40.70
2019-02-26T12:51:43.247Z,40.70
2019-02-26T12:54:18.151Z,39.10
2019-02-26T12:56:54.983Z,38.70
2019-02-26T12:59:30.982Z,37.80
2019-02-26T13:02:10.089Z,37.70
2019-02-26T13:04:47.266Z,37.60
2019-02-26T13:07:23.135Z,37.20
2019-02-26T13:10:02.777Z,35.20
2019-02-26T13:12:36.045Z,34.90
2019-02-26T13:15:12.737Z,35.10
2019-02-26T13:17:53.306Z,35.70
2019-02-26T13:20:25.729Z,36.70
2019-02-26T13:23:16.375Z,36.20
2019-02-26T13:25:38.058Z,36.10
2019-02-26T13:28:12.118Z,36.20
2019-02-26T13:30:49.026Z,36.00
2019-02-26T13:33:33.726Z,35.80
2019-02-26T13:36:12.316Z,35.70
2019-02-26T13:39:29.799Z,36.30
2019-02-26T13:42:09.142Z,36.00
2019-02-26T13:44:38.591Z,36.00
2019-02-26T13:47:14.242Z,36.20
2019-02-26T13:49:51.976Z,35.90
2019-02-26T13:52:26.131Z,34.80
2019-02-26T13:55:01.821Z,35.30
2019-02-26T13:57:40.504Z,34.90
2019-02-26T14:00:25.975Z,35.00
2019-02-26T14:02:55.818Z,34.10
2019-02-26T14:05:38.101Z,33.40
2019-02-26T14:08:11.728Z,32.50
2019-02-26T14:10:47.446Z,32.70
2019-02-26T14:13:23.102Z,32.10
2019-02-26T14:15:58.424Z,32.30
2019-02-26T14:18:34.035Z,31.20
2019-02-26T14:21:09.880Z,32.30
2019-02-26T14:23:46.031Z,32.90
2019-02-26T14:26:19.982Z,32.90
2019-02-26T14:28:53.809Z,33.00
2019-02-26T14:31:28.631Z,33.00
2019-02-26T14:34:03.176Z,33.80
2019-02-26T14:36:38.621Z,32.60
2019-02-26T14:39:14.891Z,32.90
2019-02-26T14:41:51.374Z,33.10
2019-02-26T14:44:27.454Z,33.40
2019-02-26T14:47:04.829Z,33.50
2019-02-26T14:49:41.627Z,34.30
2019-02-26T14:52:16.460Z,34.50
2019-02-26T14:54:51.249Z,35.00
2019-02-26T14:57:28.060Z,35.00
2019-02-26T15:00:04.539Z,35.70
2019-02-26T15:02:40.079Z,36.30
2019-02-26T15:05:18.079Z,36.30
2019-02-26T15:07:53.195Z,37.00
2019-02-26T15:10:27.145Z,37.50
2019-02-26T15:13:03.612Z,37.90
2019-02-26T15:15:38.604Z,38.00
2019-02-26T15:18:13.317Z,38.00
2019-02-26T15:20:48.759Z,37.60
2019-02-26T15:23:24.344Z,37.90
2019-02-26T15:25:58.812Z,38.50
2019-02-26T15:28:33.441Z,38.00
2019-02-26T15:31:08.765Z,38.00
2019-02-26T15:33:43.973Z,38.00
2019-02-26T15:36:18.060Z,37.10
2019-02-26T15:38:53.448Z,36.50
2019-02-26T15:41:27.895Z,36.20
2019-02-26T15:44:01.370Z,36.00
2019-02-26T15:46:35.589Z,36.30
2019-02-26T15:49:10.102Z,36.80
2019-02-26T15:51:48.812Z,37.20
2019-02-26T15:54:22.528Z,37.50
2019-02-26T15:56:57.729Z,38.10
2019-02-26T15:59:35.508Z,38.70
2019-02-26T16:02:09.236Z,39.30
2019-02-26T16:04:44.338Z,40.10
2019-02-26T16:07:19.641Z,40.30
2019-02-26T16:09:54.328Z,40.50
2019-02-26T16:12:29.464Z,40.70
2019-02-26T16:15:07.937Z,40.50
2019-02-26T16:17:45.406Z,40.50
2019-02-26T16:20:22.829Z,40.30
2019-02-26T16:22:58.737Z,40.70
2019-02-26T16:25:34.762Z,40.90
2019-02-26T16:28:08.982Z,40.90
2019-02-26T16:30:46.947Z,41.20
2019-02-26T16:33:22.441Z,41.50
2019-02-26T16:35:57.854Z,41.60
2019-02-26T16:38:34.562Z,41.60
2019-02-26T16:41:10.036Z,41.70
2019-02-26T16:43:58.178Z,41.80
2019-02-26T16:46:32.850Z,42.30
2019-02-26T16:49:08.151Z,42.40
2019-02-26T16:52:11.903Z,42.20
2019-02-26T16:55:08.981Z,42.10
2019-02-26T16:57:43.393Z,41.90
2019-02-26T17:00:21.109Z,41.90
2019-02-26T17:02:59.957Z,42.00
2019-02-26T17:05:32.907Z,42.10
2019-02-26T17:08:07.228Z,42.20
2019-02-26T17:10:41.779Z,42.30
2019-02-26T17:13:16.567Z,42.20
2019-02-26T17:15:51.174Z,42.30
2019-02-26T17:18:25.842Z,42.30
2019-02-26T17:21:01.617Z,42.40
2019-02-26T17:23:36.045Z,42.30
2019-02-26T17:26:11.258Z,42.30
2019-02-26T17:28:45.780Z,42.30
2019-02-26T17:31:20.371Z,42.40
2019-02-26T17:33:54.542Z,42.40
2019-02-26T17:36:32.651Z,42.60
2019-02-26T17:39:09.202Z,42.70
2019-02-26T17:41:46.697Z,42.70
2019-02-26T17:44:24.697Z,42.40
2019-02-26T17:47:00.540Z,42.20
2019-02-26T17:49:38.649Z,42.20
2019-02-26T17:52:15.850Z,41.90
2019-02-26T17:54:51.381Z,41.60
2019-02-26T17:57:26.299Z,41.30
2019-02-26T18:00:01.024Z,41.30
2019-02-26T18:02:36.550Z,41.30
2019-02-26T18:05:12.149Z,41.40
2019-02-26T18:07:46.374Z,41.50
2019-02-26T18:10:21.616Z,41.70
2019-02-26T18:12:59.622Z,41.90
2019-02-26T18:15:37.727Z,42.00
2019-02-26T18:18:17.439Z,42.00
2019-02-26T18:20:52.613Z,41.80
2019-02-26T18:23:37.582Z,41.80
2019-02-26T18:26:05.404Z,41.50
2019-02-26T18:28:47.321Z,41.50
2019-02-26T18:31:26.544Z,41.40
2019-02-26T18:33:56.735Z,41.50
2019-02-26T18:36:31.054Z,41.40
2019-02-26T18:39:06.797Z,41.40
2019-02-26T18:41:50.420Z,41.70
2019-02-26T18:44:21.259Z,42.30
2019-02-26T18:46:57.613Z,42.50
2019-02-26T18:49:32.503Z,42.60
2019-02-26T18:52:08.705Z,42.60
2019-02-26T18:54:44.703Z,42.80
2019-02-26T18:57:20.001Z,43.10
2019-02-26T19:03:13.788Z,43.10
2019-02-26T19:06:51.312Z,43.10
2019-02-26T19:09:21.601Z,43.10
2019-02-26T19:12:10.649Z,43.60
2019-02-26T19:14:48.566Z,43.60
2019-02-26T19:17:35.209Z,43.30
2019-02-26T19:20:44.309Z,43.10
2019-02-26T19:23:42.308Z,42.90
2019-02-26T19:26:23.429Z,42.80
2019-02-26T19:29:33.089Z,43.10
2019-02-26T19:32:15.463Z,43.30
2019-02-26T19:35:40.494Z,43.20
2019-02-26T19:38:17.305Z,43.10
2019-02-26T19:40:59.290Z,42.90
2019-02-26T19:43:41.830Z,42.80
2019-02-26T19:46:18.190Z,42.70
2019-02-26T19:48:55.518Z,42.80
2019-02-26T19:51:31.152Z,43.00
2019-02-26T19:54:19.672Z,43.00
2019-02-26T19:57:30.926Z,42.90
2019-02-26T20:00:43.904Z,43.20
2019-02-26T20:03:22.780Z,43.40
2019-02-26T20:05:56.293Z,44.00
2019-02-26T20:08:31.229Z,43.70
2019-02-26T20:11:06.320Z,43.20
2019-02-26T20:13:42.223Z,43.00
2019-02-26T20:16:16.836Z,43.00
2019-02-26T20:18:52.088Z,43.10
2019-02-26T20:21:25.911Z,43.20
2019-02-26T20:24:01.037Z,43.20
2019-02-26T20:26:36.581Z,43.30
2019-02-26T20:29:11.598Z,43.10
2019-02-26T20:31:46.175Z,42.80
2019-02-26T20:34:21.690Z,42.80
2019-02-26T20:36:56.743Z,43.40
2019-02-26T20:39:31.731Z,43.90
2019-02-26T20:42:06.648Z,44.40
2019-02-26T20:44:45.493Z,44.90
2019-02-26T20:47:20.329Z,45.20
2019-02-26T20:49:55.484Z,45.10
2019-02-26T20:52:32.878Z,45.40
2019-02-26T20:55:09.404Z,45.70
2019-02-26T20:57:44.072Z,45.70
2019-02-26T21:00:24.852Z,45.40
2019-02-26T21:02:59.947Z,45.00
2019-02-26T21:05:36.488Z,44.70
2019-02-26T21:08:11.815Z,44.40
2019-02-26T21:10:48.716Z,44.30
2019-02-26T21:13:24.468Z,45.10
2019-02-26T21:15:59.481Z,44.30
2019-02-26T21:18:36.295Z,44.50
2019-02-26T21:21:13.883Z,44.60
2019-02-26T21:23:47.581Z,44.60
2019-02-26T21:26:22.836Z,44.80
2019-02-26T21:28:58.130Z,45.10
2019-02-26T21:31:33.165Z,45.00
2019-02-26T21:34:10.830Z,45.20
2019-02-26T21:36:46.666Z,45.10
2019-02-26T21:39:22.049Z,45.10
2019-02-26T21:41:58.936Z,45.30
2019-02-26T21:44:33.955Z,45.40
2019-02-26T21:47:09.092Z,45.50
2019-02-26T21:49:46.554Z,45.20
2019-02-26T21:52:23.534Z,44.90
2019-02-26T21:55:01.234Z,44.90
2019-02-26T21:57:34.300Z,45.20
2019-02-26T22:00:11.325Z,45.30
2019-02-26T22:02:47.286Z,45.30
2019-02-26T22:05:24.153Z,45.50
2019-02-26T22:07:59.231Z,45.90
2019-02-26T22:10:33.608Z,45.80
2019-02-26T22:13:07.881Z,45.90
2019-02-26T22:15:44.681Z,45.80
2019-02-26T22:18:19.387Z,45.80
2019-02-26T22:20:53.610Z,45.60
2019-02-26T22:23:29.402Z,45.40
2019-02-26T22:26:04.468Z,45.20
2019-02-26T22:28:39.747Z,45.20
2019-02-26T22:31:15.471Z,45.10
2019-02-26T22:33:51.600Z,45.10
2019-02-26T22:36:27.128Z,44.60
2019-02-26T22:39:02.042Z,44.10
2019-02-26T22:41:36.926Z,43.80
2019-02-26T22:44:11.763Z,43.60
2019-02-26T22:46:46.211Z,43.80
2019-02-26T22:49:23.568Z,43.80
2019-02-26T22:51:59.178Z,43.70
2019-02-26T22:54:35.046Z,43.50
2019-02-26T22:57:10.078Z,43.40
2019-02-26T22:59:44.325Z,43.30
2019-02-26T23:02:20.424Z,43.30
2019-02-26T23:04:56.278Z,43.70
2019-02-26T23:07:30.928Z,43.70
2019-02-26T23:10:05.287Z,43.70
2019-02-26T23:12:40.524Z,44.00
2019-02-26T23:15:16.114Z,44.00
2019-02-26T23:17:51.799Z,44.10
2019-02-26T23:20:26.945Z,44.00
2019-02-26T23:23:01.968Z,44.30
2019-02-26T23:25:37.569Z,44.40
2019-02-26T23:28:12.328Z,45.20
2019-02-26T23:30:47.559Z,45.60
2019-02-26T23:33:21.749Z,45.60
2019-02-26T23:35:58.002Z,45.20
2019-02-26T23:38:33.258Z,44.80
2019-02-26T23:41:07.935Z,44.30
2019-02-26T23:43:45.023Z,44.00
2019-02-26T23:46:20.387Z,43.60
2019-02-26T23:48:56.537Z,43.30
2019-02-26T23:51:30.789Z,43.20
2019-02-26T23:54:07.346Z,43.40
2019-02-26T23:56:41.603Z,43.40
2019-02-26T23:59:17.020Z,43.50
